Latest Weather Observations for Port Hedland

IDW60801

Issued at 10:32 pm WST Wednesday 2 September 2015 (issued every 30 minutes, with the page automatically refreshed every 10 minutes)

About weather observations | Map of weather stations | Latest weather observations for WA | Other Formats
Station Details ID: 004032 Name: PORT HEDLAND AIRPORT Lat: -20.37 Lon: 118.63 Height: 6.4 m
Data from the previous 72 hours. | See also: Recent months at Port Hedland
Date/Time
WST
Temp
°C
App
Temp
°C
Dew
Point
Rel
Hum
%
Delta-T
°C
Wind Press
QNH
hPa
Press
MSL
hPa
Rain
since 9 am
mm
Dir
 
Spd
km/h
Gust
km/h
Spd
kts
Gust
kts
02/10:30pm 17.9 16.5 12.1 69 3.2 SSW 11 11 6 6 1017.3 - 0.0
02/10:00pm 18.4 17.5 12.5 68 3.3 S 9 11 5 6 1017.4 - 0.0
02/09:30pm 18.4 17.9 12.7 69 3.2 S 7 9 4 5 1017.4 - 0.0
02/09:00pm 19.2 18.9 13.4 69 3.3 S 7 11 4 6 1017.3 1017.3 0.0
02/08:30pm 19.0 18.1 13.7 71 3.0 SW 11 13 6 7 1017.3 - 0.0
02/08:00pm 19.8 19.5 13.3 66 3.7 W 7 9 4 5 1016.8 - 0.0
02/07:30pm 19.7 19.1 13.4 67 3.6 W 9 9 5 5 1016.4 - 0.0
02/07:00pm 20.5 20.5 14.3 67 3.6 NW 7 9 4 5 1015.7 - 0.0
02/06:30pm 20.8 20.3 13.7 64 4.1 NNW 9 11 5 6 1015.4 - 0.0
02/06:00pm 22.7 21.1 12.9 54 5.6 N 13 15 7 8 1015.2 1015.2 0.0
02/05:30pm 24.1 20.8 11.0 43 7.3 N 19 22 10 12 1015.0 - 0.0
02/05:00pm 24.6 20.5 10.1 40 8.0 N 22 26 12 14 1014.9 - 0.0
02/04:30pm 25.3 21.2 10.1 38 8.4 N 22 30 12 16 1014.8 - 0.0
02/04:00pm 25.5 20.6 8.4 33 9.2 N 24 32 13 17 1014.8 - 0.0
02/03:30pm 26.7 22.0 7.8 30 10.1 N 22 28 12 15 1014.8 - 0.0
02/03:00pm 27.6 23.2 7.4 28 10.8 N 20 28 11 15 1014.8 1014.8 0.0
02/02:30pm 27.7 22.6 7.8 28 10.7 N 24 32 13 17 1014.9 - 0.0
02/02:00pm 26.7 22.2 10.2 35 9.2 N 24 32 13 17 1015.1 - 0.0
02/01:30pm 29.2 21.6 0.6 15 13.7 NNE 30 37 16 20 1015.3 - 0.0
02/01:00pm 29.3 22.8 0.5 15 13.8 NNE 24 30 13 16 1015.6 - 0.0
02/12:30pm 29.3 23.0 -1.3 13 14.2 ENE 22 37 12 20 1015.9 - 0.0
02/12:00pm 29.7 22.5 -2.2 12 14.6 E 26 37 14 20 1016.4 1016.4 0.0
02/11:30am 28.4 21.5 -2.3 13 13.9 E 24 33 13 18 1016.8 - 0.0
02/11:00am 27.5 19.4 -2.9 13 13.5 E 30 41 16 22 1017.1 - 0.0
02/10:30am 27.0 19.4 -2.3 14 13.1 ESE 28 41 15 22 1017.2 - 0.0
02/10:00am 25.8 18.1 -3.0 15 12.6 ESE 28 39 15 21 1017.6 - 0.0
02/09:30am 25.3 17.5 -3.4 15 12.4 E 28 39 15 21 1017.6 - 0.0
02/09:00am 24.9 16.4 -3.0 15 12.1 E 32 41 17 22 1017.6 1017.6 0.0
02/08:30am 23.9 15.5 -2.7 17 11.5 ESE 32 43 17 23 1017.3 - 0.0
02/08:23am 23.6 15.9 -2.9 17 11.4 ESE 28 39 15 21 1017.2 - 0.0
02/08:00am 21.3 17.0 1.1 26 9.2 SE 13 17 7 9 1017.1 - 0.0
02/07:30am 17.9 15.0 4.4 41 6.4 SSE 9 15 5 8 1016.8 - 0.0
02/07:00am 15.5 12.5 4.3 47 5.2 SE 9 13 5 7 1016.5 - 0.0
02/06:30am 14.3 10.7 5.1 54 4.3 S 13 15 7 8 1015.9 - 0.0
02/06:00am 14.6 11.2 6.0 56 4.1 S 13 19 7 10 1015.3 1015.3 0.0
02/05:30am 15.2 12.3 8.2 63 3.5 S 13 15 7 8 1014.9 - 0.0
02/05:00am 13.9 12.3 11.5 85 1.3 SW 11 13 6 7 1014.6 - 0.0
02/04:30am 14.5 13.1 12.3 87 1.2 SW 11 13 6 7 1014.5 - 0.0
02/04:00am 14.9 13.5 13.3 90 0.9 SW 13 13 7 7 1014.4 - 0.0
02/03:30am 14.9 14.0 13.6 92 0.7 SW 11 15 6 8 1014.5 - 0.0
02/03:00am 15.0 14.5 13.8 92 0.7 WSW 9 13 5 7 1014.6 1014.6 0.0
02/02:30am 16.2 15.2 14.6 90 0.9 SW 13 13 7 7 1014.7 - 0.0
02/02:00am 16.4 17.5 14.5 88 1.1 SSW 2 9 1 5 1014.8 - 0.0
02/01:30am 17.8 18.2 15.4 86 1.4 S 7 9 4 5 1015.1 - 0.0
02/01:00am 18.2 18.6 15.3 83 1.7 S 7 9 4 5 1015.3 - 0.0
02/12:30am 18.7 18.8 15.6 82 1.8 SSW 9 11 5 6 1015.4 - 0.0
02/12:00am 18.2 18.6 15.3 83 1.7 NW 7 11 4 6 1015.4 1015.4 0.0
 
Date/Time
WST
Temp
°C
App
Temp
°C
Dew
Point
Rel
Hum
%
Delta-T
°C
Wind Press
QNH
hPa
Press
MSL
hPa
Rain
since 9 am
mm
Dir
 
Spd
km/h
Gust
km/h
Spd
kts
Gust
kts
01/11:30pm 18.2 19.3 15.5 84 1.6 NNW 4 6 2 3 1015.6 - 0.0
01/11:00pm 19.2 20.4 15.8 81 2.0 NNW 4 7 2 4 1015.6 - 0.0
01/10:30pm 19.3 18.4 15.8 80 2.1 W 15 17 8 9 1015.3 - 0.0
01/10:00pm 20.0 19.1 15.8 77 2.5 W 15 20 8 11 1015.2 - 0.0
01/09:30pm 20.2 18.1 14.7 70 3.2 WSW 19 24 10 13 1015.2 - 0.0
01/09:00pm 20.8 18.0 13.3 62 4.3 W 20 26 11 14 1015.1 1015.1 0.0
01/08:30pm 21.1 18.0 12.2 56 5.0 W 20 24 11 13 1014.8 - 0.0
01/08:00pm 21.1 18.2 10.9 52 5.6 W 17 20 9 11 1014.4 - 0.0
01/07:30pm 20.2 18.9 13.8 66 3.7 WNW 13 13 7 7 1014.2 - 0.0
01/07:00pm 21.5 19.5 11.4 52 5.6 WNW 13 15 7 8 1013.7 - 0.0
01/06:30pm 22.6 21.2 13.4 56 5.3 WNW 13 15 7 8 1013.4 - 0.0
01/06:00pm 24.2 22.1 13.6 51 6.2 WNW 17 20 9 11 1013.0 1013.0 0.0
01/05:30pm 26.1 22.8 11.5 40 8.3 NW 20 24 11 13 1012.8 - 0.0
01/05:00pm 27.2 23.3 10.7 35 9.3 NW 22 30 12 16 1012.7 - 0.0
01/04:30pm 28.3 24.0 10.7 33 10.0 WNW 24 30 13 16 1012.4 - 0.0
01/04:00pm 28.7 23.8 10.0 31 10.5 NW 26 32 14 17 1012.3 - 0.0
01/03:30pm 29.8 24.1 6.6 23 12.4 NW 26 32 14 17 1012.3 - 0.0
01/03:00pm 30.5 24.5 3.3 17 13.8 N 24 28 13 15 1012.2 1012.2 0.0
01/02:30pm 31.9 26.7 3.8 17 14.5 NW 20 26 11 14 1012.2 - 0.0
01/02:00pm 31.7 28.4 2.6 15 14.7 ESE 9 13 5 7 1012.5 - 0.0
01/01:30pm 31.2 27.3 1.4 15 14.7 S 11 20 6 11 1012.9 - 0.0
01/01:00pm 30.8 27.5 2.4 16 14.2 S 9 19 5 10 1013.4 - 0.0
01/12:30pm 30.4 26.2 1.5 15 14.2 S 13 20 7 11 1013.8 - 0.0
01/12:00pm 29.5 25.4 2.5 17 13.4 SE 13 19 7 10 1014.1 1014.1 0.0
01/11:30am 29.1 24.0 2.8 18 13.1 SSE 19 28 10 15 1014.8 - 0.0
01/11:00am 29.0 23.7 2.9 18 13.0 SSE 20 33 11 18 1015.1 - 0.0
01/10:30am 28.3 22.2 2.9 19 12.6 SSE 24 35 13 19 1015.5 - 0.0
01/10:00am 27.8 21.0 2.9 20 12.3 SSE 28 35 15 19 1015.7 - 0.0
01/09:30am 26.7 20.4 3.9 23 11.4 SSE 26 35 14 19 1015.8 - 0.0
01/09:00am 25.7 18.6 3.6 24 10.9 SSE 30 39 16 21 1015.7 1015.7 0.0
01/08:30am 24.4 18.6 4.5 27 9.9 SSE 24 30 13 16 1015.5 - 0.0
01/08:00am 21.4 17.5 7.2 40 7.3 S 17 20 9 11 1015.5 - 0.0
01/07:30am 19.4 15.6 7.4 45 6.1 S 17 24 9 13 1015.3 - 0.0
01/07:00am 17.3 13.6 7.8 53 4.8 S 17 20 9 11 1014.8 - 0.0
01/06:30am 16.5 13.2 8.2 58 4.2 SSW 15 20 8 11 1014.5 - 0.0
01/06:00am 16.4 12.9 8.8 60 3.9 SW 17 20 9 11 1014.1 1014.1 0.0
01/05:30am 16.9 14.0 9.6 62 3.8 SW 15 19 8 10 1013.8 - 0.0
01/05:00am 17.2 14.6 10.7 65 3.5 WSW 15 20 8 11 1013.5 - 0.0
01/04:30am 17.3 15.2 12.4 73 2.7 WSW 15 19 8 10 1013.2 - 0.0
01/04:00am 17.5 15.7 13.4 77 2.3 WSW 15 17 8 9 1013.2 - 0.0
01/03:30am 18.2 16.0 13.4 73 2.7 WSW 17 19 9 10 1013.2 - 0.0
01/03:00am 19.2 17.1 13.6 70 3.2 W 17 20 9 11 1013.2 1013.2 0.0
01/02:30am 19.6 17.3 12.9 65 3.8 WSW 17 20 9 11 1013.4 - 0.0
01/02:00am 20.6 17.2 12.4 59 4.6 W 22 30 12 16 1013.4 - 0.0
01/01:30am 20.8 17.0 12.5 59 4.7 W 24 32 13 17 1013.6 - 0.0
01/01:00am 21.1 16.8 12.2 56 5.0 W 26 35 14 19 1013.8 - 0.0
01/12:30am 21.2 17.4 12.3 57 5.0 W 24 32 13 17 1014.2 - 0.0
01/12:00am 21.0 17.7 12.7 59 4.7 W 22 30 12 16 1014.5 1014.5 0.0
 
Date/Time
WST
Temp
°C
App
Temp
°C
Dew
Point
Rel
Hum
%
Delta-T
°C
Wind Press
QNH
hPa
Press
MSL
hPa
Rain
since 9 am
mm
Dir
 
Spd
km/h
Gust
km/h
Spd
kts
Gust
kts
31/11:30pm 21.3 17.8 13.5 61 4.5 W 24 33 13 18 1014.6 - 0.0
31/11:00pm 21.6 18.6 13.6 60 4.6 W 22 30 12 16 1014.8 - 0.0
31/10:30pm 21.2 18.6 15.9 72 3.2 W 24 30 13 16 1014.8 - 0.0
31/10:00pm 21.7 18.8 16.0 70 3.4 W 26 32 14 17 1014.9 - 0.0
31/09:30pm 21.8 18.9 16.2 70 3.4 W 26 32 14 17 1015.0 - 0.0
31/09:00pm 21.8 19.7 16.3 71 3.3 W 22 28 12 15 1015.1 1015.1 0.0
31/08:30pm 21.7 19.8 15.7 68 3.6 W 20 24 11 13 1015.0 - 0.0
31/08:00pm 22.0 19.3 14.5 62 4.4 W 22 28 12 15 1014.8 - 0.0
31/07:30pm 22.4 19.0 13.8 58 5.0 W 24 32 13 17 1014.5 - 0.0
31/07:00pm 23.2 18.5 13.1 53 5.8 W 30 39 16 21 1014.0 - 0.0
31/06:30pm 23.7 19.5 13.4 52 6.0 W 28 37 15 20 1013.7 - 0.0
31/06:00pm 24.6 20.6 11.9 45 7.2 WNW 24 30 13 16 1013.3 1013.3 0.0
31/05:30pm 26.2 21.1 10.5 37 8.8 WNW 28 35 15 19 1013.0 - 0.0
31/05:00pm 26.3 22.1 13.6 45 7.5 WNW 28 35 15 19 1012.9 - 0.0
31/04:30pm 27.6 22.2 10.8 35 9.5 WNW 30 37 16 20 1012.8 - 0.0
31/04:00pm 28.5 21.9 7.8 27 11.2 WNW 32 41 17 22 1012.7 - 0.0
31/03:30pm 29.1 22.2 7.4 25 11.7 NW 33 43 18 23 1012.7 - 0.0
31/03:00pm 29.2 22.7 6.7 24 12.0 NW 30 35 16 19 1013.0 1013.0 0.0
31/02:30pm 29.6 23.2 6.8 23 12.2 NW 30 35 16 19 1012.9 - 0.0
31/02:00pm 29.7 22.8 4.8 20 12.9 NW 30 35 16 19 1013.1 - 0.0
31/01:30pm 30.0 24.1 5.7 21 12.8 NW 26 35 14 19 1013.4 - 0.0
31/01:00pm 29.8 24.0 4.3 19 13.1 N 24 28 13 15 1013.7 - 0.0
31/12:30pm 30.6 25.7 5.2 20 13.3 N 20 28 11 15 1014.0 - 0.0
31/12:00pm 30.5 25.4 2.9 17 13.9 NNE 19 24 10 13 1014.3 1014.3 0.0
31/11:30am 31.4 27.6 3.7 17 14.2 E 13 20 7 11 1014.7 - 0.0
31/11:00am 30.7 26.4 0.9 15 14.5 ESE 13 20 7 11 1015.0 - 0.0
31/10:30am 29.6 25.1 2.0 17 13.6 SE 15 22 8 12 1015.5 - 0.0
31/10:00am 28.8 22.3 0.5 16 13.5 SE 24 32 13 17 1015.8 - 0.0
31/09:30am 27.6 22.1 2.1 19 12.4 SSE 20 26 11 14 1015.9 - 0.0
31/09:00am 26.8 21.4 2.7 21 11.8 SSE 20 30 11 16 1015.8 1015.8 0.0
31/08:30am 24.5 20.3 5.6 29 9.6 S 17 24 9 13 1015.6 - 0.0
31/08:00am 22.1 18.6 7.1 38 7.7 S 15 20 8 11 1015.5 - 0.0
31/07:30am 19.6 17.0 9.4 51 5.4 SSW 13 17 7 9 1015.4 - 0.0
31/07:00am 15.6 14.7 12.5 82 1.7 WSW 9 13 5 7 1015.1 - 0.0
31/06:30am 13.8 12.2 11.7 87 1.1 SW 11 13 6 7 1014.7 - 0.0
31/06:00am 14.1 12.6 11.9 86 1.2 SSW 11 13 6 7 1014.4 1014.4 0.0
31/05:30am 14.7 13.3 12.3 85 1.3 SW 11 13 6 7 1014.3 - 0.0
31/05:00am 14.9 13.3 12.7 87 1.2 WSW 13 15 7 8 1014.0 - 0.0
31/04:30am 16.3 16.1 13.6 84 1.5 SW 7 11 4 6 1013.9 - 0.0
31/04:00am 16.7 16.3 14.1 85 1.5 SW 9 11 5 6 1013.9 - 0.0
31/03:30am 17.1 16.9 14.7 86 1.4 SW 9 11 5 6 1014.0 - 0.0
31/03:00am 17.1 17.1 15.2 88 1.1 WSW 9 11 5 6 1014.1 1014.1 0.0
31/02:30am 17.9 17.1 15.2 84 1.6 WSW 13 15 7 8 1014.3 - 0.0
31/02:00am 19.2 18.5 15.5 79 2.2 SW 13 15 7 8 1014.6 - 0.0
31/01:30am 20.0 18.2 15.6 76 2.6 W 19 24 10 13 1014.5 - 0.0
31/01:00am 20.9 18.5 15.5 71 3.2 W 22 28 12 15 1014.8 - 0.0
31/12:30am 21.2 17.9 15.1 68 3.6 W 26 33 14 18 1015.0 - 0.0
31/12:00am 21.0 18.5 14.1 64 4.0 W 20 28 11 15 1015.2 1015.2 0.0
 
Date/Time
WST
Temp
°C
App
Temp
°C
Dew
Point
Rel
Hum
%
Delta-T
°C
Wind Press
QNH
hPa
Press
MSL
hPa
Rain
since 9 am
mm
Dir
 
Spd
km/h
Gust
km/h
Spd
kts
Gust
kts
30/11:30pm 20.8 17.8 12.5 59 4.7 W 20 28 11 15 1015.3 - 0.0
30/11:00pm 21.4 17.9 12.1 55 5.2 W 22 26 12 14 1015.5 - 0.0

Other Formats:

Comma delimited format used in spreadsheet applications
http://www.bom.gov.au/fwo/IDW60801/IDW60801.94312.axf

JavaScript Object Notation format (JSON) in row-major order
http://www.bom.gov.au/fwo/IDW60801/IDW60801.94312.json